sensor_id;sensor_type;location;lat;lon;timestamp;P1;durP1;ratioP1;P2;durP2;ratioP2
67498;SDS011;54345;42.670;23.218;2022-10-16T00:00:52;22.00;;;9.90;;
67498;SDS011;54345;42.670;23.218;2022-10-16T00:03:18;19.33;;;9.50;;
67498;SDS011;54345;42.670;23.218;2022-10-16T00:05:44;17.70;;;8.93;;
67498;SDS011;54345;42.670;23.218;2022-10-16T00:08:12;15.87;;;9.33;;
67498;SDS011;54345;42.670;23.218;2022-10-16T00:10:38;17.00;;;8.87;;
67498;SDS011;54345;42.670;23.218;2022-10-16T00:13:04;16.23;;;8.67;;
67498;SDS011;54345;42.670;23.218;2022-10-16T00:15:32;15.73;;;8.80;;
67498;SDS011;54345;42.670;23.218;2022-10-16T00:18:01;20.33;;;8.93;;
67498;SDS011;54345;42.670;23.218;2022-10-16T00:20:28;20.00;;;9.07;;
67498;SDS011;54345;42.670;23.218;2022-10-16T00:22:54;19.20;;;9.40;;
67498;SDS011;54345;42.670;23.218;2022-10-16T00:25:19;19.03;;;9.33;;
67498;SDS011;54345;42.670;23.218;2022-10-16T00:27:45;20.30;;;9.40;;
67498;SDS011;54345;42.670;23.218;2022-10-16T00:30:10;17.20;;;8.77;;
67498;SDS011;54345;42.670;23.218;2022-10-16T00:32:36;19.10;;;8.43;;
67498;SDS011;54345;42.670;23.218;2022-10-16T00:35:01;14.83;;;8.40;;
67498;SDS011;54345;42.670;23.218;2022-10-16T00:37:29;16.63;;;9.10;;
67498;SDS011;54345;42.670;23.218;2022-10-16T00:39:54;14.40;;;8.03;;
67498;SDS011;54345;42.670;23.218;2022-10-16T00:42:19;14.93;;;8.73;;
67498;SDS011;54345;42.670;23.218;2022-10-16T00:44:53;19.43;;;9.27;;
67498;SDS011;54345;42.670;23.218;2022-10-16T00:50:04;11.83;;;8.37;;
67498;SDS011;54345;42.670;23.218;2022-10-16T00:52:34;17.03;;;8.90;;
67498;SDS011;54345;42.670;23.218;2022-10-16T00:55:02;16.13;;;8.17;;
67498;SDS011;54345;42.670;23.218;2022-10-16T00:57:29;14.90;;;8.17;;
67498;SDS011;54345;42.670;23.218;2022-10-16T00:59:55;18.10;;;8.83;;
67498;SDS011;54345;42.670;23.218;2022-10-16T01:02:23;16.03;;;8.83;;
67498;SDS011;54345;42.670;23.218;2022-10-16T01:04:51;17.87;;;8.20;;
67498;SDS011;54345;42.670;23.218;2022-10-16T01:07:28;14.63;;;8.03;;
67498;SDS011;54345;42.670;23.218;2022-10-16T01:10:06;16.97;;;8.40;;
67498;SDS011;54345;42.670;23.218;2022-10-16T01:18:16;16.30;;;9.13;;
67498;SDS011;54345;42.670;23.218;2022-10-16T01:21:13;19.47;;;9.30;;
67498;SDS011;54345;42.670;23.218;2022-10-16T01:24:02;14.43;;;8.43;;
67498;SDS011;54345;42.670;23.218;2022-10-16T01:32:49;15.50;;;8.70;;
67498;SDS011;54345;42.670;23.218;2022-10-16T01:35:34;14.67;;;8.83;;
67498;SDS011;54345;42.670;23.218;2022-10-16T01:38:07;15.20;;;8.27;;
67498;SDS011;54345;42.670;23.218;2022-10-16T01:40:39;17.60;;;9.03;;
67498;SDS011;54345;42.670;23.218;2022-10-16T01:43:13;15.60;;;8.77;;
67498;SDS011;54345;42.670;23.218;2022-10-16T01:45:42;20.20;;;9.30;;
67498;SDS011;54345;42.670;23.218;2022-10-16T01:48:14;16.43;;;9.43;;
67498;SDS011;54345;42.670;23.218;2022-10-16T01:50:44;20.40;;;10.13;;
67498;SDS011;54345;42.670;23.218;2022-10-16T01:53:14;16.40;;;9.00;;
67498;SDS011;54345;42.670;23.218;2022-10-16T01:55:43;17.40;;;8.60;;
67498;SDS011;54345;42.670;23.218;2022-10-16T01:58:13;17.83;;;9.63;;
67498;SDS011;54345;42.670;23.218;2022-10-16T02:00:40;14.70;;;8.73;;
67498;SDS011;54345;42.670;23.218;2022-10-16T02:03:09;16.50;;;9.17;;
67498;SDS011;54345;42.670;23.218;2022-10-16T02:05:39;16.90;;;9.57;;
67498;SDS011;54345;42.670;23.218;2022-10-16T02:08:10;18.93;;;9.70;;
67498;SDS011;54345;42.670;23.218;2022-10-16T02:10:36;18.47;;;9.93;;
67498;SDS011;54345;42.670;23.218;2022-10-16T02:13:05;17.27;;;9.37;;
67498;SDS011;54345;42.670;23.218;2022-10-16T02:15:35;15.20;;;8.53;;
67498;SDS011;54345;42.670;23.218;2022-10-16T02:18:02;20.43;;;10.23;;
67498;SDS011;54345;42.670;23.218;2022-10-16T02:20:32;18.63;;;10.13;;
67498;SDS011;54345;42.670;23.218;2022-10-16T02:23:04;19.60;;;9.47;;
67498;SDS011;54345;42.670;23.218;2022-10-16T02:25:32;18.57;;;10.10;;
67498;SDS011;54345;42.670;23.218;2022-10-16T02:28:08;21.37;;;10.23;;
67498;SDS011;54345;42.670;23.218;2022-10-16T02:30:59;17.60;;;9.67;;
67498;SDS011;54345;42.670;23.218;2022-10-16T02:33:29;17.27;;;9.63;;
67498;SDS011;54345;42.670;23.218;2022-10-16T02:35:57;19.37;;;10.63;;
67498;SDS011;54345;42.670;23.218;2022-10-16T02:38:24;20.13;;;9.97;;
67498;SDS011;54345;42.670;23.218;2022-10-16T02:40:51;17.23;;;9.10;;
67498;SDS011;54345;42.670;23.218;2022-10-16T02:43:17;14.00;;;8.67;;
67498;SDS011;54345;42.670;23.218;2022-10-16T02:45:43;21.73;;;10.07;;
67498;SDS011;54345;42.670;23.218;2022-10-16T02:48:09;18.30;;;10.87;;
67498;SDS011;54345;42.670;23.218;2022-10-16T02:50:34;16.70;;;9.00;;
67498;SDS011;54345;42.670;23.218;2022-10-16T02:53:00;20.63;;;10.57;;
67498;SDS011;54345;42.670;23.218;2022-10-16T02:55:26;18.50;;;9.57;;
67498;SDS011;54345;42.670;23.218;2022-10-16T02:57:52;15.60;;;8.93;;
67498;SDS011;54345;42.670;23.218;2022-10-16T03:00:19;19.67;;;9.97;;
67498;SDS011;54345;42.670;23.218;2022-10-16T03:02:45;19.13;;;10.17;;
67498;SDS011;54345;42.670;23.218;2022-10-16T03:05:12;15.80;;;9.60;;
67498;SDS011;54345;42.670;23.218;2022-10-16T03:07:38;19.77;;;10.33;;
67498;SDS011;54345;42.670;23.218;2022-10-16T03:10:04;20.20;;;10.40;;
67498;SDS011;54345;42.670;23.218;2022-10-16T03:12:30;17.87;;;9.20;;
67498;SDS011;54345;42.670;23.218;2022-10-16T03:14:56;19.40;;;9.97;;
67498;SDS011;54345;42.670;23.218;2022-10-16T03:17:23;15.87;;;8.73;;
67498;SDS011;54345;42.670;23.218;2022-10-16T03:19:49;15.63;;;9.37;;
67498;SDS011;54345;42.670;23.218;2022-10-16T03:22:14;20.77;;;9.10;;
67498;SDS011;54345;42.670;23.218;2022-10-16T03:24:40;18.63;;;9.23;;
67498;SDS011;54345;42.670;23.218;2022-10-16T03:27:05;19.03;;;9.30;;
67498;SDS011;54345;42.670;23.218;2022-10-16T03:29:31;18.97;;;9.93;;
67498;SDS011;54345;42.670;23.218;2022-10-16T03:31:57;15.30;;;9.10;;
67498;SDS011;54345;42.670;23.218;2022-10-16T03:34:24;17.33;;;9.10;;
67498;SDS011;54345;42.670;23.218;2022-10-16T03:36:49;18.30;;;9.97;;
67498;SDS011;54345;42.670;23.218;2022-10-16T03:39:15;14.03;;;8.60;;
67498;SDS011;54345;42.670;23.218;2022-10-16T03:41:40;19.23;;;9.90;;
67498;SDS011;54345;42.670;23.218;2022-10-16T03:44:06;20.13;;;10.67;;
67498;SDS011;54345;42.670;23.218;2022-10-16T03:46:32;21.00;;;9.97;;
67498;SDS011;54345;42.670;23.218;2022-10-16T03:48:57;16.03;;;9.67;;
67498;SDS011;54345;42.670;23.218;2022-10-16T03:51:23;17.87;;;10.13;;
67498;SDS011;54345;42.670;23.218;2022-10-16T03:53:48;21.63;;;10.33;;
67498;SDS011;54345;42.670;23.218;2022-10-16T03:56:14;20.27;;;10.10;;
67498;SDS011;54345;42.670;23.218;2022-10-16T03:58:39;20.60;;;10.60;;
67498;SDS011;54345;42.670;23.218;2022-10-16T04:01:05;20.47;;;10.83;;
67498;SDS011;54345;42.670;23.218;2022-10-16T04:03:31;22.93;;;10.47;;
67498;SDS011;54345;42.670;23.218;2022-10-16T04:05:56;18.13;;;9.77;;
67498;SDS011;54345;42.670;23.218;2022-10-16T04:08:22;16.30;;;9.83;;
67498;SDS011;54345;42.670;23.218;2022-10-16T04:10:47;16.27;;;9.00;;
67498;SDS011;54345;42.670;23.218;2022-10-16T04:13:13;17.93;;;9.53;;
67498;SDS011;54345;42.670;23.218;2022-10-16T04:15:38;19.47;;;10.33;;
67498;SDS011;54345;42.670;23.218;2022-10-16T04:18:04;18.53;;;10.27;;
67498;SDS011;54345;42.670;23.218;2022-10-16T04:20:30;16.93;;;9.07;;
67498;SDS011;54345;42.670;23.218;2022-10-16T04:22:55;19.37;;;10.13;;
67498;SDS011;54345;42.670;23.218;2022-10-16T04:25:21;18.13;;;9.83;;
67498;SDS011;54345;42.670;23.218;2022-10-16T04:27:47;18.03;;;10.27;;
67498;SDS011;54345;42.670;23.218;2022-10-16T04:30:13;20.13;;;10.40;;
67498;SDS011;54345;42.670;23.218;2022-10-16T04:32:39;20.47;;;10.53;;
67498;SDS011;54345;42.670;23.218;2022-10-16T04:35:05;14.47;;;8.97;;
67498;SDS011;54345;42.670;23.218;2022-10-16T04:37:31;20.80;;;10.60;;
67498;SDS011;54345;42.670;23.218;2022-10-16T04:39:57;18.57;;;10.50;;
67498;SDS011;54345;42.670;23.218;2022-10-16T04:42:22;16.57;;;9.70;;
67498;SDS011;54345;42.670;23.218;2022-10-16T04:44:48;19.87;;;10.93;;
67498;SDS011;54345;42.670;23.218;2022-10-16T04:47:13;17.70;;;10.00;;
67498;SDS011;54345;42.670;23.218;2022-10-16T04:49:39;20.17;;;10.30;;
67498;SDS011;54345;42.670;23.218;2022-10-16T04:52:04;21.00;;;11.80;;
67498;SDS011;54345;42.670;23.218;2022-10-16T04:54:30;20.47;;;10.90;;
67498;SDS011;54345;42.670;23.218;2022-10-16T04:56:56;21.83;;;11.37;;
67498;SDS011;54345;42.670;23.218;2022-10-16T04:59:22;21.73;;;11.83;;
67498;SDS011;54345;42.670;23.218;2022-10-16T05:01:48;19.03;;;10.47;;
67498;SDS011;54345;42.670;23.218;2022-10-16T05:04:14;18.67;;;10.37;;
67498;SDS011;54345;42.670;23.218;2022-10-16T05:06:40;21.33;;;11.67;;
67498;SDS011;54345;42.670;23.218;2022-10-16T05:09:07;21.77;;;11.60;;
67498;SDS011;54345;42.670;23.218;2022-10-16T05:11:33;21.60;;;11.57;;
67498;SDS011;54345;42.670;23.218;2022-10-16T05:13:59;21.50;;;11.67;;
67498;SDS011;54345;42.670;23.218;2022-10-16T05:16:25;18.50;;;9.87;;
67498;SDS011;54345;42.670;23.218;2022-10-16T05:18:51;21.27;;;10.90;;
67498;SDS011;54345;42.670;23.218;2022-10-16T05:21:17;21.67;;;11.27;;
67498;SDS011;54345;42.670;23.218;2022-10-16T05:23:42;18.90;;;10.93;;
67498;SDS011;54345;42.670;23.218;2022-10-16T05:26:08;23.33;;;11.43;;
67498;SDS011;54345;42.670;23.218;2022-10-16T05:28:33;20.57;;;10.83;;
67498;SDS011;54345;42.670;23.218;2022-10-16T05:30:59;17.50;;;10.63;;
67498;SDS011;54345;42.670;23.218;2022-10-16T05:33:29;18.83;;;11.20;;
67498;SDS011;54345;42.670;23.218;2022-10-16T05:35:55;21.60;;;11.47;;
67498;SDS011;54345;42.670;23.218;2022-10-16T05:38:20;18.10;;;11.57;;
67498;SDS011;54345;42.670;23.218;2022-10-16T05:40:55;19.83;;;11.50;;
67498;SDS011;54345;42.670;23.218;2022-10-16T05:43:21;19.97;;;11.50;;
67498;SDS011;54345;42.670;23.218;2022-10-16T05:45:55;15.73;;;10.40;;
67498;SDS011;54345;42.670;23.218;2022-10-16T05:48:25;22.83;;;11.60;;
67498;SDS011;54345;42.670;23.218;2022-10-16T05:51:04;22.67;;;11.47;;
67498;SDS011;54345;42.670;23.218;2022-10-16T05:53:33;20.17;;;10.70;;
67498;SDS011;54345;42.670;23.218;2022-10-16T05:56:00;20.53;;;10.47;;
67498;SDS011;54345;42.670;23.218;2022-10-16T05:58:33;16.57;;;11.40;;
67498;SDS011;54345;42.670;23.218;2022-10-16T06:01:04;25.27;;;12.10;;
67498;SDS011;54345;42.670;23.218;2022-10-16T06:03:41;16.47;;;10.40;;
67498;SDS011;54345;42.670;23.218;2022-10-16T06:06:09;17.80;;;10.60;;
67498;SDS011;54345;42.670;23.218;2022-10-16T06:08:39;18.60;;;9.90;;
67498;SDS011;54345;42.670;23.218;2022-10-16T06:11:06;17.73;;;10.10;;
67498;SDS011;54345;42.670;23.218;2022-10-16T06:13:34;18.60;;;10.03;;
67498;SDS011;54345;42.670;23.218;2022-10-16T06:16:00;19.77;;;10.50;;
67498;SDS011;54345;42.670;23.218;2022-10-16T06:18:27;22.53;;;11.53;;
67498;SDS011;54345;42.670;23.218;2022-10-16T06:20:53;15.70;;;9.83;;
67498;SDS011;54345;42.670;23.218;2022-10-16T06:23:20;19.10;;;10.20;;
67498;SDS011;54345;42.670;23.218;2022-10-16T06:25:45;17.07;;;10.50;;
67498;SDS011;54345;42.670;23.218;2022-10-16T06:28:11;16.83;;;9.70;;
67498;SDS011;54345;42.670;23.218;2022-10-16T06:30:39;16.73;;;9.93;;
67498;SDS011;54345;42.670;23.218;2022-10-16T06:33:04;20.13;;;11.27;;
67498;SDS011;54345;42.670;23.218;2022-10-16T06:35:30;20.03;;;10.63;;
67498;SDS011;54345;42.670;23.218;2022-10-16T06:37:57;20.80;;;10.50;;
67498;SDS011;54345;42.670;23.218;2022-10-16T06:40:22;17.87;;;10.53;;
67498;SDS011;54345;42.670;23.218;2022-10-16T06:42:48;22.67;;;12.33;;
67498;SDS011;54345;42.670;23.218;2022-10-16T06:45:13;21.70;;;12.60;;
67498;SDS011;54345;42.670;23.218;2022-10-16T06:47:39;18.17;;;10.77;;
67498;SDS011;54345;42.670;23.218;2022-10-16T06:50:05;21.90;;;11.43;;
67498;SDS011;54345;42.670;23.218;2022-10-16T06:52:32;18.90;;;11.13;;
67498;SDS011;54345;42.670;23.218;2022-10-16T06:54:58;20.20;;;11.50;;
67498;SDS011;54345;42.670;23.218;2022-10-16T06:57:24;19.23;;;12.00;;
67498;SDS011;54345;42.670;23.218;2022-10-16T06:59:50;24.93;;;12.57;;
67498;SDS011;54345;42.670;23.218;2022-10-16T07:02:16;22.17;;;12.07;;
67498;SDS011;54345;42.670;23.218;2022-10-16T07:04:41;27.20;;;12.50;;
67498;SDS011;54345;42.670;23.218;2022-10-16T07:07:07;25.80;;;13.43;;
67498;SDS011;54345;42.670;23.218;2022-10-16T07:09:32;20.53;;;13.30;;
67498;SDS011;54345;42.670;23.218;2022-10-16T07:11:58;34.87;;;14.93;;
67498;SDS011;54345;42.670;23.218;2022-10-16T07:14:23;23.80;;;13.60;;
67498;SDS011;54345;42.670;23.218;2022-10-16T07:16:49;25.87;;;13.20;;
67498;SDS011;54345;42.670;23.218;2022-10-16T07:19:14;20.40;;;12.90;;
67498;SDS011;54345;42.670;23.218;2022-10-16T07:21:42;27.23;;;13.57;;
67498;SDS011;54345;42.670;23.218;2022-10-16T07:24:12;27.27;;;14.23;;
67498;SDS011;54345;42.670;23.218;2022-10-16T07:26:39;25.93;;;14.17;;
67498;SDS011;54345;42.670;23.218;2022-10-16T07:29:06;21.93;;;13.03;;
67498;SDS011;54345;42.670;23.218;2022-10-16T07:31:38;22.33;;;12.97;;
67498;SDS011;54345;42.670;23.218;2022-10-16T07:34:04;25.90;;;13.60;;
67498;SDS011;54345;42.670;23.218;2022-10-16T07:36:29;20.97;;;12.87;;
67498;SDS011;54345;42.670;23.218;2022-10-16T07:38:55;21.33;;;13.70;;
67498;SDS011;54345;42.670;23.218;2022-10-16T07:41:21;25.60;;;13.87;;
67498;SDS011;54345;42.670;23.218;2022-10-16T07:43:47;20.97;;;13.60;;
67498;SDS011;54345;42.670;23.218;2022-10-16T07:46:17;24.13;;;13.43;;
67498;SDS011;54345;42.670;23.218;2022-10-16T07:48:44;22.70;;;15.13;;
67498;SDS011;54345;42.670;23.218;2022-10-16T07:51:12;27.73;;;16.80;;
67498;SDS011;54345;42.670;23.218;2022-10-16T07:53:42;29.17;;;15.43;;
67498;SDS011;54345;42.670;23.218;2022-10-16T07:56:08;24.60;;;15.53;;
67498;SDS011;54345;42.670;23.218;2022-10-16T07:58:34;28.47;;;15.87;;
67498;SDS011;54345;42.670;23.218;2022-10-16T08:01:08;24.30;;;14.93;;
67498;SDS011;54345;42.670;23.218;2022-10-16T08:03:36;26.93;;;14.77;;
67498;SDS011;54345;42.670;23.218;2022-10-16T08:06:02;22.77;;;15.67;;
67498;SDS011;54345;42.670;23.218;2022-10-16T08:08:29;26.87;;;16.53;;
67498;SDS011;54345;42.670;23.218;2022-10-16T08:10:55;24.07;;;15.93;;
67498;SDS011;54345;42.670;23.218;2022-10-16T08:13:20;23.17;;;13.83;;
67498;SDS011;54345;42.670;23.218;2022-10-16T08:15:46;18.77;;;12.50;;
67498;SDS011;54345;42.670;23.218;2022-10-16T08:18:13;27.97;;;13.93;;
67498;SDS011;54345;42.670;23.218;2022-10-16T08:20:40;23.07;;;14.27;;
67498;SDS011;54345;42.670;23.218;2022-10-16T08:23:06;26.97;;;14.20;;
67498;SDS011;54345;42.670;23.218;2022-10-16T08:25:35;19.97;;;12.03;;
67498;SDS011;54345;42.670;23.218;2022-10-16T08:28:08;26.77;;;13.10;;
67498;SDS011;54345;42.670;23.218;2022-10-16T08:30:35;21.80;;;12.43;;
67498;SDS011;54345;42.670;23.218;2022-10-16T08:33:02;22.70;;;14.50;;
67498;SDS011;54345;42.670;23.218;2022-10-16T08:35:28;20.90;;;13.50;;
67498;SDS011;54345;42.670;23.218;2022-10-16T08:37:53;27.17;;;15.17;;
67498;SDS011;54345;42.670;23.218;2022-10-16T08:40:20;26.67;;;15.00;;
67498;SDS011;54345;42.670;23.218;2022-10-16T08:48:18;21.93;;;12.97;;
67498;SDS011;54345;42.670;23.218;2022-10-16T08:50:51;22.40;;;12.03;;
67498;SDS011;54345;42.670;23.218;2022-10-16T08:53:19;19.73;;;11.30;;
67498;SDS011;54345;42.670;23.218;2022-10-16T08:55:50;22.50;;;10.90;;
67498;SDS011;54345;42.670;23.218;2022-10-16T08:58:18;24.93;;;11.80;;
67498;SDS011;54345;42.670;23.218;2022-10-16T09:00:47;19.97;;;10.90;;
67498;SDS011;54345;42.670;23.218;2022-10-16T09:08:49;13.30;;;8.17;;
67498;SDS011;54345;42.670;23.218;2022-10-16T09:16:28;15.43;;;8.87;;
67498;SDS011;54345;42.670;23.218;2022-10-16T09:21:31;16.47;;;8.17;;
67498;SDS011;54345;42.670;23.218;2022-10-16T09:24:12;15.60;;;7.93;;
67498;SDS011;54345;42.670;23.218;2022-10-16T09:26:41;20.60;;;8.70;;
67498;SDS011;54345;42.670;23.218;2022-10-16T09:29:08;17.80;;;6.87;;
67498;SDS011;54345;42.670;23.218;2022-10-16T09:31:39;13.23;;;5.90;;
67498;SDS011;54345;42.670;23.218;2022-10-16T09:34:05;14.33;;;6.40;;
67498;SDS011;54345;42.670;23.218;2022-10-16T09:36:41;11.43;;;6.10;;
67498;SDS011;54345;42.670;23.218;2022-10-16T09:39:10;17.83;;;6.60;;
67498;SDS011;54345;42.670;23.218;2022-10-16T09:41:37;14.40;;;5.87;;
67498;SDS011;54345;42.670;23.218;2022-10-16T09:44:39;11.93;;;5.20;;
67498;SDS011;54345;42.670;23.218;2022-10-16T09:47:19;9.73;;;5.13;;
67498;SDS011;54345;42.670;23.218;2022-10-16T09:49:55;16.63;;;6.10;;
67498;SDS011;54345;42.670;23.218;2022-10-16T09:52:24;10.27;;;5.03;;
67498;SDS011;54345;42.670;23.218;2022-10-16T09:54:51;33.07;;;6.47;;
67498;SDS011;54345;42.670;23.218;2022-10-16T09:57:19;13.37;;;5.57;;
67498;SDS011;54345;42.670;23.218;2022-10-16T09:59:47;11.93;;;5.47;;
67498;SDS011;54345;42.670;23.218;2022-10-16T10:02:15;101.37;;;9.87;;
67498;SDS011;54345;42.670;23.218;2022-10-16T10:04:53;24.57;;;6.10;;
67498;SDS011;54345;42.670;23.218;2022-10-16T10:07:32;15.30;;;5.47;;
67498;SDS011;54345;42.670;23.218;2022-10-16T10:10:01;15.33;;;5.37;;
67498;SDS011;54345;42.670;23.218;2022-10-16T10:12:31;11.30;;;5.33;;
67498;SDS011;54345;42.670;23.218;2022-10-16T10:15:07;14.17;;;5.17;;
67498;SDS011;54345;42.670;23.218;2022-10-16T10:17:50;15.50;;;5.43;;
67498;SDS011;54345;42.670;23.218;2022-10-16T10:20:28;34.00;;;7.83;;
67498;SDS011;54345;42.670;23.218;2022-10-16T10:22:59;14.50;;;5.83;;
67498;SDS011;54345;42.670;23.218;2022-10-16T10:38:58;12.37;;;5.27;;
67498;SDS011;54345;42.670;23.218;2022-10-16T10:46:50;22.63;;;6.87;;
67498;SDS011;54345;42.670;23.218;2022-10-16T10:55:10;18.30;;;6.30;;
67498;SDS011;54345;42.670;23.218;2022-10-16T11:03:46;14.20;;;5.53;;
67498;SDS011;54345;42.670;23.218;2022-10-16T11:09:21;15.10;;;4.97;;
67498;SDS011;54345;42.670;23.218;2022-10-16T11:12:05;14.37;;;4.73;;
67498;SDS011;54345;42.670;23.218;2022-10-16T11:14:45;13.20;;;4.87;;
67498;SDS011;54345;42.670;23.218;2022-10-16T11:20:14;21.57;;;6.50;;
67498;SDS011;54345;42.670;23.218;2022-10-16T11:25:33;19.60;;;5.17;;
67498;SDS011;54345;42.670;23.218;2022-10-16T11:28:03;14.93;;;5.63;;
67498;SDS011;54345;42.670;23.218;2022-10-16T11:30:43;11.07;;;5.20;;
67498;SDS011;54345;42.670;23.218;2022-10-16T11:35:44;19.70;;;5.33;;
67498;SDS011;54345;42.670;23.218;2022-10-16T11:40:56;14.90;;;5.37;;
67498;SDS011;54345;42.670;23.218;2022-10-16T11:43:28;18.00;;;5.63;;
67498;SDS011;54345;42.670;23.218;2022-10-16T11:46:04;11.90;;;4.80;;
67498;SDS011;54345;42.670;23.218;2022-10-16T11:48:42;15.47;;;5.93;;
67498;SDS011;54345;42.670;23.218;2022-10-16T11:51:21;19.27;;;6.27;;
67498;SDS011;54345;42.670;23.218;2022-10-16T11:54:17;15.07;;;5.87;;
67498;SDS011;54345;42.670;23.218;2022-10-16T11:56:59;18.30;;;5.37;;
67498;SDS011;54345;42.670;23.218;2022-10-16T11:59:45;18.47;;;5.47;;
67498;SDS011;54345;42.670;23.218;2022-10-16T12:02:26;20.33;;;6.23;;
67498;SDS011;54345;42.670;23.218;2022-10-16T12:07:49;13.30;;;4.93;;
67498;SDS011;54345;42.670;23.218;2022-10-16T12:10:37;12.27;;;4.40;;
67498;SDS011;54345;42.670;23.218;2022-10-16T12:13:27;14.20;;;5.20;;
67498;SDS011;54345;42.670;23.218;2022-10-16T12:16:21;11.30;;;3.97;;
67498;SDS011;54345;42.670;23.218;2022-10-16T12:18:46;14.83;;;4.80;;
67498;SDS011;54345;42.670;23.218;2022-10-16T12:21:14;12.93;;;5.10;;
67498;SDS011;54345;42.670;23.218;2022-10-16T12:23:51;12.20;;;4.30;;
67498;SDS011;54345;42.670;23.218;2022-10-16T12:26:28;15.57;;;5.07;;
67498;SDS011;54345;42.670;23.218;2022-10-16T12:29:08;16.40;;;4.93;;
67498;SDS011;54345;42.670;23.218;2022-10-16T12:31:39;12.90;;;4.73;;
67498;SDS011;54345;42.670;23.218;2022-10-16T12:34:23;24.67;;;5.93;;
67498;SDS011;54345;42.670;23.218;2022-10-16T12:37:10;11.63;;;4.47;;
67498;SDS011;54345;42.670;23.218;2022-10-16T12:39:44;16.70;;;5.37;;
67498;SDS011;54345;42.670;23.218;2022-10-16T12:42:19;16.57;;;5.57;;
67498;SDS011;54345;42.670;23.218;2022-10-16T12:44:56;16.73;;;4.63;;
67498;SDS011;54345;42.670;23.218;2022-10-16T12:49:53;14.07;;;5.17;;
67498;SDS011;54345;42.670;23.218;2022-10-16T12:52:26;19.70;;;6.03;;
67498;SDS011;54345;42.670;23.218;2022-10-16T12:54:59;24.10;;;5.73;;
67498;SDS011;54345;42.670;23.218;2022-10-16T13:03:16;15.60;;;4.20;;
67498;SDS011;54345;42.670;23.218;2022-10-16T13:06:25;18.20;;;5.73;;
67498;SDS011;54345;42.670;23.218;2022-10-16T13:09:07;18.00;;;4.80;;
67498;SDS011;54345;42.670;23.218;2022-10-16T13:23:08;12.57;;;4.60;;
67498;SDS011;54345;42.670;23.218;2022-10-16T13:29:00;19.10;;;5.73;;
67498;SDS011;54345;42.670;23.218;2022-10-16T13:31:27;12.20;;;4.97;;
67498;SDS011;54345;42.670;23.218;2022-10-16T13:33:55;20.70;;;5.10;;
67498;SDS011;54345;42.670;23.218;2022-10-16T13:36:33;13.80;;;4.47;;
67498;SDS011;54345;42.670;23.218;2022-10-16T13:41:37;8.70;;;4.03;;
67498;SDS011;54345;42.670;23.218;2022-10-16T13:44:03;8.90;;;4.20;;
67498;SDS011;54345;42.670;23.218;2022-10-16T13:46:30;10.53;;;4.27;;
67498;SDS011;54345;42.670;23.218;2022-10-16T13:49:03;12.37;;;4.80;;
67498;SDS011;54345;42.670;23.218;2022-10-16T13:51:31;13.07;;;4.57;;
67498;SDS011;54345;42.670;23.218;2022-10-16T13:53:58;8.23;;;3.80;;
67498;SDS011;54345;42.670;23.218;2022-10-16T13:56:30;14.47;;;4.37;;
67498;SDS011;54345;42.670;23.218;2022-10-16T13:58:58;13.33;;;4.77;;
67498;SDS011;54345;42.670;23.218;2022-10-16T14:01:28;11.80;;;4.47;;
67498;SDS011;54345;42.670;23.218;2022-10-16T14:04:00;11.03;;;4.13;;
67498;SDS011;54345;42.670;23.218;2022-10-16T14:06:32;11.87;;;4.10;;
67498;SDS011;54345;42.670;23.218;2022-10-16T14:09:04;14.43;;;4.73;;
67498;SDS011;54345;42.670;23.218;2022-10-16T14:11:55;11.77;;;4.20;;
67498;SDS011;54345;42.670;23.218;2022-10-16T14:14:32;11.53;;;4.33;;
67498;SDS011;54345;42.670;23.218;2022-10-16T14:17:04;9.80;;;4.60;;
67498;SDS011;54345;42.670;23.218;2022-10-16T14:19:30;12.13;;;4.77;;
67498;SDS011;54345;42.670;23.218;2022-10-16T14:21:57;12.80;;;4.57;;
67498;SDS011;54345;42.670;23.218;2022-10-16T14:24:32;15.23;;;4.37;;
67498;SDS011;54345;42.670;23.218;2022-10-16T14:26:59;27.10;;;5.80;;
67498;SDS011;54345;42.670;23.218;2022-10-16T14:29:26;16.07;;;5.03;;
67498;SDS011;54345;42.670;23.218;2022-10-16T14:32:03;12.20;;;4.13;;
67498;SDS011;54345;42.670;23.218;2022-10-16T14:34:34;9.33;;;4.10;;
67498;SDS011;54345;42.670;23.218;2022-10-16T14:37:14;15.53;;;5.30;;
67498;SDS011;54345;42.670;23.218;2022-10-16T14:39:49;15.00;;;4.70;;
67498;SDS011;54345;42.670;23.218;2022-10-16T14:42:19;11.57;;;4.70;;
67498;SDS011;54345;42.670;23.218;2022-10-16T14:44:48;9.20;;;3.90;;
67498;SDS011;54345;42.670;23.218;2022-10-16T14:47:18;10.60;;;4.20;;
67498;SDS011;54345;42.670;23.218;2022-10-16T14:49:49;16.83;;;5.33;;
67498;SDS011;54345;42.670;23.218;2022-10-16T14:52:14;13.00;;;4.73;;
67498;SDS011;54345;42.670;23.218;2022-10-16T14:54:40;13.37;;;5.47;;
67498;SDS011;54345;42.670;23.218;2022-10-16T14:57:13;12.43;;;5.23;;
67498;SDS011;54345;42.670;23.218;2022-10-16T14:59:45;13.10;;;4.90;;
67498;SDS011;54345;42.670;23.218;2022-10-16T15:02:29;27.10;;;5.37;;
67498;SDS011;54345;42.670;23.218;2022-10-16T15:04:57;12.27;;;4.70;;
67498;SDS011;54345;42.670;23.218;2022-10-16T15:07:26;11.17;;;4.23;;
67498;SDS011;54345;42.670;23.218;2022-10-16T15:09:52;18.97;;;4.80;;
67498;SDS011;54345;42.670;23.218;2022-10-16T15:12:18;12.97;;;4.83;;
67498;SDS011;54345;42.670;23.218;2022-10-16T15:14:44;10.33;;;4.10;;
67498;SDS011;54345;42.670;23.218;2022-10-16T15:17:09;10.83;;;4.00;;
67498;SDS011;54345;42.670;23.218;2022-10-16T15:19:36;11.53;;;4.30;;
67498;SDS011;54345;42.670;23.218;2022-10-16T15:22:01;13.90;;;4.47;;
67498;SDS011;54345;42.670;23.218;2022-10-16T15:24:27;15.20;;;5.17;;
67498;SDS011;54345;42.670;23.218;2022-10-16T15:26:52;15.17;;;5.30;;
67498;SDS011;54345;42.670;23.218;2022-10-16T15:29:18;13.47;;;5.13;;
67498;SDS011;54345;42.670;23.218;2022-10-16T15:31:43;12.53;;;5.13;;
67498;SDS011;54345;42.670;23.218;2022-10-16T15:34:12;12.50;;;4.87;;
67498;SDS011;54345;42.670;23.218;2022-10-16T15:36:38;16.80;;;5.67;;
67498;SDS011;54345;42.670;23.218;2022-10-16T15:39:04;16.80;;;5.77;;
67498;SDS011;54345;42.670;23.218;2022-10-16T15:41:35;15.43;;;6.23;;
67498;SDS011;54345;42.670;23.218;2022-10-16T15:44:01;15.73;;;5.00;;
67498;SDS011;54345;42.670;23.218;2022-10-16T15:46:26;15.53;;;4.80;;
67498;SDS011;54345;42.670;23.218;2022-10-16T15:48:56;12.43;;;4.37;;
67498;SDS011;54345;42.670;23.218;2022-10-16T15:51:22;19.33;;;5.63;;
67498;SDS011;54345;42.670;23.218;2022-10-16T15:53:49;10.60;;;4.80;;
67498;SDS011;54345;42.670;23.218;2022-10-16T15:56:15;18.63;;;5.83;;
67498;SDS011;54345;42.670;23.218;2022-10-16T15:58:42;18.20;;;5.63;;
67498;SDS011;54345;42.670;23.218;2022-10-16T16:01:08;18.20;;;5.33;;
67498;SDS011;54345;42.670;23.218;2022-10-16T16:03:35;12.63;;;5.63;;
67498;SDS011;54345;42.670;23.218;2022-10-16T16:06:09;18.30;;;6.13;;
67498;SDS011;54345;42.670;23.218;2022-10-16T16:08:36;17.63;;;5.97;;
67498;SDS011;54345;42.670;23.218;2022-10-16T16:11:05;19.70;;;5.97;;
67498;SDS011;54345;42.670;23.218;2022-10-16T16:13:34;17.80;;;5.77;;
67498;SDS011;54345;42.670;23.218;2022-10-16T16:16:04;15.70;;;5.53;;